Latest Weather Observations for Alice Springs Airport

IDD60801

Issued at 1:01 pm CST Saturday 24 June 2017 (issued every 30 minutes, with the page automatically refreshed every 10 minutes)

About weather observations | Map of weather stations | Latest weather observations for NT | Other Formats
Station Details ID: 015590 Name: ALICE SPRINGS AIRPORT Lat: -23.80 Lon: 133.89 Height: 546.0 m
Data from the previous 72 hours. | See also: Recent months at Alice Springs Airport
Date/Time
CST
Temp
°C
App
Temp
°C
Dew
Point
°C
Rel
Hum
%
Delta-T
°C
Wind Press
QNH
hPa
Press
MSL
hPa
Rain since
9am
mm
Dir  Spd
km/h
Gust
km/h
Spd
kts
Gust
kts
24/01:00pm 26.0 22.6 -0.9 17 12.6 SSE 7 13 4 7 1018.2 1017.7 0.0
24/12:30pm 25.7 22.3 -0.4 18 12.3 WNW 7 13 4 7 1018.6 1018.2 0.0
24/12:00pm 25.3 22.1 -0.7 18 12.1 WSW 6 13 3 7 1019.1 1018.7 0.0
24/11:30am 24.4 21.3 0.0 20 11.5 N 6 11 3 6 1019.6 1019.2 0.0
24/11:00am 24.0 20.7 0.4 21 11.2 NNE 7 11 4 6 1020.0 1019.6 0.0
24/10:30am 23.3 20.7 1.0 23 10.6 NE 4 7 2 4 1020.2 1019.8 0.0
24/10:00am 20.1 16.9 0.5 27 9.0 WNW 7 9 4 5 1020.1 1019.7 0.0
24/09:30am 17.6 14.8 -0.2 30 7.9 SE 4 6 2 3 1020.1 1019.7 0.0
24/09:00am 15.4 13.4 0.0 35 6.7 CALM 0 0 0 0 1019.6 1019.2 0.0
24/08:30am 12.4 10.3 -0.5 41 5.4 CALM 0 0 0 0 1019.3 1018.9 0.0
24/08:00am 9.4 5.6 -0.8 49 4.1 N 9 11 5 6 1019.1 1018.7 0.0
24/07:30am 5.7 2.3 -2.4 56 3.0 NW 6 7 3 4 1019.0 1018.6 0.0
24/07:00am 6.0 2.0 -2.1 56 3.1 NW 9 11 5 6 1019.0 1018.6 0.0
24/06:30am 5.3 1.3 -2.3 58 2.8 W 9 9 5 5 1018.7 1018.3 0.0
24/06:00am 5.6 2.2 -2.2 57 2.9 WNW 6 7 3 4 1018.6 1018.2 0.0
24/05:30am 6.0 2.4 -1.9 57 3.0 WNW 7 7 4 4 1018.4 1018.0 0.0
24/05:00am 6.0 1.7 -1.4 59 2.9 WNW 11 11 6 6 1018.4 1018.0 0.0
24/04:30am 6.4 2.4 -2.0 55 3.2 NW 9 11 5 6 1018.6 1018.2 0.0
24/04:00am 7.1 3.6 -1.6 54 3.4 WNW 7 9 4 5 1018.8 1018.4 0.0
24/03:30am 7.1 3.5 -2.1 52 3.5 W 7 7 4 4 1018.9 1018.5 0.0
24/03:00am 8.2 4.4 -0.5 54 3.5 WNW 9 11 5 6 1018.8 1018.4 0.0
24/02:30am 7.6 3.4 -1.1 54 3.4 W 11 11 6 6 1019.0 1018.6 0.0
24/02:00am 7.9 4.0 -1.6 51 3.7 WNW 9 11 5 6 1018.9 1018.5 0.0
24/01:30am 8.0 4.1 -1.5 51 3.7 NW 9 9 5 5 1019.0 1018.6 0.0
24/01:00am 8.6 5.0 -1.8 48 4.1 NW 7 9 4 5 1019.0 1018.6 0.0
24/12:30am 10.1 6.4 -0.1 49 4.2 WNW 9 9 5 5 1019.1 1018.7 0.0
24/12:00am 8.9 4.9 -2.4 45 4.4 WSW 9 11 5 6 1019.5 1019.1 0.0
 
Date/Time
CST
Temp
°C
App
Temp
°C
Dew
Point
°C
Rel
Hum
%
Delta-T
°C
Wind Press
QNH
hPa
Press
MSL
hPa
Rain since
9am
mm
Dir  Spd
km/h
Gust
km/h
Spd
kts
Gust
kts
23/11:30pm 10.4 7.1 -1.3 44 4.7 W 6 9 3 5 1019.4 1019.0 0.0
23/11:00pm 10.2 8.0 -1.5 44 4.7 CALM 0 0 0 0 1019.5 1019.1 0.0
23/10:30pm 11.8 9.6 -1.3 40 5.4 CALM 0 0 0 0 1019.5 1019.1 0.0
23/10:00pm 12.6 10.5 -1.0 39 5.7 CALM 0 6 0 3 1019.5 1019.1 0.0
23/09:30pm 13.3 11.3 -0.3 39 5.8 CALM 0 2 0 1 1019.3 1018.9 0.0
23/09:00pm 15.0 11.7 0.4 37 6.4 NE 7 7 4 4 1019.3 1018.9 0.0
23/08:30pm 14.7 11.1 -2.2 31 7.0 E 7 7 4 4 1019.2 1018.8 0.0
23/08:00pm 16.1 12.3 -1.0 31 7.4 ENE 9 17 5 9 1019.0 1018.6 0.0
23/07:30pm 18.0 14.3 -0.3 29 8.1 SSE 9 9 5 5 1018.6 1018.2 0.0
23/07:00pm 19.8 15.8 0.3 27 8.9 SE 11 13 6 7 1018.3 1017.8 0.0
23/06:30pm 21.2 17.2 0.4 25 9.6 SE 11 13 6 7 1017.9 1017.4 0.0
23/06:00pm 22.1 18.2 -1.2 21 10.5 SE 9 11 5 6 1017.6 1017.2 0.0
23/05:30pm 25.5 23.1 -0.5 18 12.2 SE 2 7 1 4 1017.3 1016.9 0.0
23/05:00pm 26.6 23.8 -0.4 17 12.8 NNE 4 11 2 6 1017.1 1016.7 0.0
23/04:30pm 27.0 24.2 -0.1 17 13.0 NE 4 13 2 7 1017.1 1016.7 0.0
23/04:00pm 26.5 23.8 0.3 18 12.6 W 4 9 2 5 1017.2 1016.8 0.0
23/03:30pm 27.3 24.1 0.9 18 12.9 NW 7 11 4 6 1017.6 1017.2 0.0
23/03:00pm 27.2 24.2 0.8 18 12.9 N 6 9 3 5 1017.7 1017.3 0.0
23/02:30pm 27.0 24.0 0.7 18 12.8 W 6 9 3 5 1018.0 1017.5 0.0
23/02:00pm 26.5 23.3 1.0 19 12.4 WNW 7 13 4 7 1018.3 1017.8 0.0
23/01:30pm 26.3 23.1 0.9 19 12.3 N 7 15 4 8 1019.0 1018.6 0.0
23/01:00pm 25.8 22.9 1.2 20 12.0 NNE 6 11 3 6 1019.6 1019.2 0.0
23/12:30pm 25.6 22.3 2.3 22 11.5 WNW 9 17 5 9 1020.3 1019.9 0.0
23/12:00pm 25.2 22.9 2.6 23 11.2 SE 4 9 2 5 1020.9 1020.5 0.0
23/11:30am 24.6 22.7 2.7 24 10.8 NNE 2 11 1 6 1021.5 1021.2 0.0
23/11:00am 23.1 20.5 3.1 27 9.9 N 6 9 3 5 1022.0 1021.6 0.0
23/10:30am 21.3 18.5 3.0 30 8.9 SW 7 11 4 6 1022.3 1021.9 0.0
23/10:00am 19.2 15.9 2.6 33 7.9 S 9 11 5 6 1022.3 1021.9 0.0
23/09:30am 17.9 16.4 3.0 37 7.1 CALM 0 0 0 0 1022.1 1021.7 0.0
23/09:00am 15.1 12.3 3.3 45 5.5 NE 7 9 4 5 1021.8 1021.4 0.0
23/08:30am 11.2 8.0 3.0 57 3.7 N 9 11 5 6 1021.6 1021.3 0.0
23/08:00am 6.6 2.6 0.7 66 2.4 WNW 11 13 6 7 1021.9 1021.5 0.0
23/07:39am 5.0 1.3 -0.2 69 2.0 W 9 9 5 5 1021.5 1021.2 0.0
23/07:30am 4.2 0.7 -1.4 67 2.1 W 7 9 4 5 1021.4 1021.0 0.0
23/07:19am 4.4 0.6 -1.0 68 2.1 W 9 9 5 5 1021.3 1020.9 0.0
23/07:00am 4.3 0.4 -1.7 65 2.2 W 9 9 5 5 1020.9 1020.5 0.0
23/06:30am 5.8 2.7 0.4 68 2.2 NNW 6 7 3 4 1020.9 1020.5 0.0
23/06:00am 5.7 2.6 -0.1 66 2.3 NW 6 9 3 5 1020.9 1020.5 0.0
23/05:30am 6.4 2.8 0.3 65 2.5 NW 9 11 5 6 1020.6 1020.2 0.0
23/05:00am 6.0 2.6 -0.5 63 2.6 WNW 7 9 4 5 1020.6 1020.2 0.0
23/04:30am 6.4 3.1 0.3 65 2.5 NW 7 9 4 5 1020.6 1020.2 0.0
23/04:00am 6.1 2.9 -0.8 61 2.7 NW 6 7 3 4 1020.7 1020.3 0.0
23/03:30am 7.0 3.4 0.7 64 2.6 NW 9 9 5 5 1020.7 1020.3 0.0
23/03:00am 7.0 3.7 0.0 61 2.8 NW 7 9 4 5 1020.8 1020.4 0.0
23/02:30am 7.7 4.5 0.7 61 2.9 WNW 7 9 4 5 1021.0 1020.6 0.0
23/02:00am 7.9 4.2 0.2 58 3.1 WNW 9 9 5 5 1021.2 1020.8 0.0
23/01:30am 7.9 4.6 0.2 58 3.1 WNW 7 9 4 5 1021.3 1020.9 0.0
23/01:00am 8.5 4.8 0.2 56 3.4 WNW 9 9 5 5 1021.4 1021.0 0.0
23/12:30am 8.9 5.2 0.1 54 3.6 W 9 9 5 5 1021.5 1021.2 0.0
23/12:00am 8.9 5.5 -0.4 52 3.8 W 7 9 4 5 1021.8 1021.4 0.0
 
Date/Time
CST
Temp
°C
App
Temp
°C
Dew
Point
°C
Rel
Hum
%
Delta-T
°C
Wind Press
QNH
hPa
Press
MSL
hPa
Rain since
9am
mm
Dir  Spd
km/h
Gust
km/h
Spd
kts
Gust
kts
22/11:30pm 9.9 6.7 0.8 53 3.8 W 7 9 4 5 1021.8 1021.4 0.0
22/11:00pm 11.0 7.4 0.7 49 4.4 W 9 9 5 5 1022.1 1021.7 0.0
22/10:30pm 10.7 8.7 0.2 48 4.4 CALM 0 0 0 0 1022.1 1021.7 0.0
22/10:00pm 12.1 10.1 0.2 44 5.1 CALM 0 0 0 0 1022.1 1021.7 0.0
22/09:30pm 15.3 11.9 1.8 40 6.1 E 9 11 5 6 1021.9 1021.5 0.0
22/09:00pm 15.9 12.1 2.0 39 6.3 ENE 11 11 6 6 1021.8 1021.4 0.0
22/08:30pm 15.0 11.5 1.2 39 6.1 ENE 9 13 5 7 1021.4 1021.0 0.0
22/08:00pm 15.7 12.5 0.7 36 6.7 E 7 11 4 6 1021.2 1020.8 0.0
22/07:30pm 17.3 13.4 0.9 33 7.4 ESE 11 13 6 7 1020.9 1020.5 0.0
22/07:00pm 18.4 14.5 1.0 31 8.0 ESE 11 13 6 7 1020.6 1020.2 0.0
22/06:30pm 19.1 15.2 1.1 30 8.3 ESE 11 13 6 7 1020.2 1019.8 0.0
22/06:00pm 19.9 15.9 0.4 27 8.9 SE 11 13 6 7 1020.0 1019.6 0.0
22/05:30pm 22.7 18.4 1.1 24 10.2 ESE 13 19 7 10 1019.7 1019.3 0.0
22/05:00pm 24.0 19.9 2.2 24 10.7 ESE 13 19 7 10 1019.6 1019.2 0.0
22/04:30pm 24.4 20.3 2.5 24 10.8 SE 13 20 7 11 1019.5 1019.1 0.0
22/04:00pm 24.6 21.0 2.7 24 10.9 ESE 11 22 6 12 1019.5 1019.1 0.0
22/03:30pm 24.7 20.7 2.8 24 10.9 ESE 13 19 7 10 1019.6 1019.2 0.0
22/03:00pm 25.1 21.4 2.5 23 11.2 SE 11 17 6 9 1019.9 1019.4 0.0
22/02:30pm 24.5 21.2 2.6 24 10.8 WSW 9 15 5 8 1020.2 1019.8 0.0
22/02:00pm 24.3 21.5 3.0 25 10.6 SE 7 11 4 6 1020.4 1020.0 0.0
22/01:30pm 23.7 20.1 3.1 26 10.2 SSE 11 17 6 9 1021.0 1020.6 0.0
22/01:00pm 24.1 21.5 3.4 26 10.4 SW 6 13 3 7 1021.6 1021.3 0.0
22/12:30pm 23.4 20.0 3.9 28 9.8 ENE 11 19 6 10 1022.3 1021.9 0.0
22/12:00pm 22.4 18.1 3.5 29 9.3 NE 15 20 8 11 1022.9 1022.5 0.0
22/11:30am 21.8 18.4 3.9 31 8.9 ENE 11 19 6 10 1023.3 1023.0 0.0
22/11:00am 20.3 16.3 3.1 32 8.3 E 13 19 7 10 1024.0 1023.6 0.0
22/10:30am 19.2 14.9 3.4 35 7.6 ENE 15 22 8 12 1024.2 1023.8 0.0
22/10:00am 17.4 13.9 3.3 39 6.7 ENE 11 15 6 8 1024.5 1024.1 0.0
22/09:30am 15.3 13.8 3.1 44 5.7 CALM 0 0 0 0 1024.5 1024.1 0.0
22/09:00am 11.6 10.0 2.4 53 4.1 CALM 0 0 0 0 1024.3 1023.9 0.0
22/08:30am 8.5 6.5 0.2 56 3.4 CALM 0 0 0 0 1024.2 1023.8 0.0
22/08:00am 5.2 2.0 -0.6 66 2.3 NNW 6 7 3 4 1024.1 1023.7 0.0
22/07:30am 3.4 -0.5 -1.2 72 1.7 NW 9 9 5 5 1023.6 1023.3 0.0
22/07:00am 4.1 0.4 -0.3 73 1.7 NW 9 11 5 6 1023.4 1023.1 0.0
22/06:30am 4.0 0.2 -0.4 73 1.7 WNW 9 11 5 6 1022.9 1022.5 0.0
22/06:00am 3.3 0.0 -1.4 71 1.7 W 6 7 3 4 1022.8 1022.4 0.0
22/05:30am 4.0 0.6 -0.6 72 1.8 W 7 9 4 5 1022.3 1021.9 0.0
22/05:00am 4.6 1.2 -0.8 68 2.1 NW 7 9 4 5 1022.2 1021.8 0.0
22/04:30am 4.4 0.9 -1.0 68 2.1 WNW 7 7 4 4 1022.1 1021.7 0.0
22/04:00am 4.2 0.6 -2.0 64 2.3 WNW 7 7 4 4 1022.2 1021.8 0.0
22/03:30am 5.2 2.0 -0.2 68 2.1 NNW 6 7 3 4 1022.2 1021.8 0.0
22/03:00am 5.4 1.6 -0.8 64 2.4 NW 9 9 5 5 1022.5 1022.1 0.0
22/02:30am 6.0 2.2 -0.5 63 2.5 WNW 9 9 5 5 1022.7 1022.3 0.0
22/02:00am 5.9 2.1 -0.6 63 2.6 WNW 9 9 5 5 1022.8 1022.4 0.0
22/01:30am 6.6 3.2 -0.4 61 2.8 WNW 7 9 4 5 1022.7 1022.3 0.0
22/01:00am 6.8 3.0 -0.4 60 2.9 WNW 9 9 5 5 1022.7 1022.3 0.0
22/12:30am 7.7 4.4 0.4 60 3.0 WNW 7 9 4 5 1022.8 1022.4 0.0
22/12:00am 8.1 4.8 0.3 58 3.2 WNW 7 9 4 5 1023.0 1022.6 0.0
 
Date/Time
CST
Temp
°C
App
Temp
°C
Dew
Point
°C
Rel
Hum
%
Delta-T
°C
Wind Press
QNH
hPa
Press
MSL
hPa
Rain since
9am
mm
Dir  Spd
km/h
Gust
km/h
Spd
kts
Gust
kts
21/11:30pm 7.9 4.1 -0.8 54 3.5 W 9 9 5 5 1023.3 1023.0 0.0
21/11:00pm 8.5 6.1 -0.5 53 3.6 W 2 7 1 4 1023.3 1023.0 0.0
21/10:30pm 9.0 7.0 0.2 54 3.6 CALM 0 0 0 0 1023.3 1023.0 0.0
21/10:00pm 9.2 7.1 -0.7 50 4.0 CALM 0 0 0 0 1023.3 1023.0 0.0
21/09:30pm 9.5 6.9 -1.8 45 4.5 ESE 2 7 1 4 1023.3 1023.0 0.0
21/09:00pm 11.3 8.2 0.4 47 4.6 NE 6 7 3 4 1023.2 1022.9 0.0
21/08:30pm 12.0 8.8 -0.2 43 5.1 NNE 6 7 3 4 1023.1 1022.8 0.0
21/08:00pm 13.1 10.4 0.5 42 5.5 ESE 4 9 2 5 1022.9 1022.5 0.0
21/07:30pm 13.9 10.2 0.2 39 5.9 ESE 9 11 5 6 1022.6 1022.2 0.0
21/07:00pm 15.2 11.2 0.2 36 6.6 ESE 11 13 6 7 1022.1 1021.7 0.0
21/06:30pm 16.1 11.9 -1.0 31 7.3 SE 11 13 6 7 1021.6 1021.3 0.0
21/06:00pm 19.2 15.2 0.3 28 8.6 ESE 11 13 6 7 1021.4 1021.0 0.0
21/05:30pm 20.8 16.7 0.1 25 9.5 ESE 11 15 6 8 1021.2 1020.8 0.0
21/05:00pm 21.8 17.1 0.9 25 9.8 ESE 15 19 8 10 1021.2 1020.8 0.0
21/04:30pm 22.0 17.8 1.6 26 9.7 ESE 13 19 7 10 1021.0 1020.6 0.0
21/04:00pm 22.2 17.9 1.3 25 9.9 ESE 13 20 7 11 1020.9 1020.5 0.0
21/03:30pm 22.7 18.6 2.2 26 9.9 SE 13 20 7 11 1020.8 1020.4 0.0
21/03:00pm 22.8 18.7 2.3 26 9.9 SE 13 22 7 12 1020.9 1020.5 0.0
21/02:30pm 22.8 19.5 2.3 26 9.9 SE 9 13 5 7 1020.9 1020.5 0.0
21/02:00pm 22.7 19.1 2.8 27 9.8 ESE 11 20 6 11 1021.4 1021.0 0.0
21/01:30pm 21.3 17.6 2.6 29 9.0 E 11 19 6 10 1021.9 1021.5 0.0

Other Formats:

Comma delimited format used in spreadsheet applications
http://www.bom.gov.au/fwo/IDD60801/IDD60801.94326.axf

JavaScript Object Notation format (JSON) in row-major order
http://www.bom.gov.au/fwo/IDD60801/IDD60801.94326.json